sensor_id;sensor_type;location;lat;lon;timestamp;pressure;altitude;pressure_sealevel;temperature;humidity
4590;BME280;2307;48.448;9.216;2023-09-18T00:00:03;94891.31;;;23.48;66.10
4590;BME280;2307;48.448;9.216;2023-09-18T00:02:30;94892.31;;;23.35;65.38
4590;BME280;2307;48.448;9.216;2023-09-18T00:04:57;94891.22;;;23.36;63.93
4590;BME280;2307;48.448;9.216;2023-09-18T00:07:23;94899.31;;;23.36;63.43
4590;BME280;2307;48.448;9.216;2023-09-18T00:09:50;94893.75;;;23.41;67.67
4590;BME280;2307;48.448;9.216;2023-09-18T00:12:16;94885.47;;;23.37;77.69
4590;BME280;2307;48.448;9.216;2023-09-18T00:14:46;94881.38;;;23.10;83.31
4590;BME280;2307;48.448;9.216;2023-09-18T00:17:13;94876.28;;;23.17;76.79
4590;BME280;2307;48.448;9.216;2023-09-18T00:19:40;94855.09;;;23.07;82.19
4590;BME280;2307;48.448;9.216;2023-09-18T00:22:06;94854.03;;;23.00;85.59
4590;BME280;2307;48.448;9.216;2023-09-18T00:24:34;94860.56;;;22.90;70.07
4590;BME280;2307;48.448;9.216;2023-09-18T00:27:00;94864.41;;;22.89;77.32
4590;BME280;2307;48.448;9.216;2023-09-18T00:29:27;94858.16;;;22.68;78.68
4590;BME280;2307;48.448;9.216;2023-09-18T00:31:54;94857.34;;;22.76;67.28
4590;BME280;2307;48.448;9.216;2023-09-18T00:34:21;94852.03;;;22.88;65.79
4590;BME280;2307;48.448;9.216;2023-09-18T00:36:47;94861.13;;;23.04;66.71
4590;BME280;2307;48.448;9.216;2023-09-18T00:39:13;94862.06;;;23.08;78.39
4590;BME280;2307;48.448;9.216;2023-09-18T00:41:40;94864.19;;;22.94;82.96
4590;BME280;2307;48.448;9.216;2023-09-18T00:44:07;94858.34;;;22.92;77.17
4590;BME280;2307;48.448;9.216;2023-09-18T00:46:34;94866.25;;;22.97;72.60
4590;BME280;2307;48.448;9.216;2023-09-18T00:49:03;94866.25;;;22.97;70.17
4590;BME280;2307;48.448;9.216;2023-09-18T00:51:29;94861.97;;;22.96;71.41
4590;BME280;2307;48.448;9.216;2023-09-18T00:53:56;94870.53;;;22.98;73.83
4590;BME280;2307;48.448;9.216;2023-09-18T00:56:22;94876.13;;;22.85;76.91
4590;BME280;2307;48.448;9.216;2023-09-18T00:58:48;94884.41;;;22.71;79.76
4590;BME280;2307;48.448;9.216;2023-09-18T01:01:16;94880.63;;;22.72;81.23
4590;BME280;2307;48.448;9.216;2023-09-18T01:03:47;94886.03;;;22.55;82.63
4590;BME280;2307;48.448;9.216;2023-09-18T01:06:15;94877.78;;;22.60;78.52
4590;BME280;2307;48.448;9.216;2023-09-18T01:08:43;94880.31;;;22.65;80.16
4590;BME280;2307;48.448;9.216;2023-09-18T01:11:10;94869.06;;;22.71;80.51
4590;BME280;2307;48.448;9.216;2023-09-18T01:13:41;94871.41;;;22.82;71.80
4590;BME280;2307;48.448;9.216;2023-09-18T01:16:13;94854.81;;;23.00;65.22
4590;BME280;2307;48.448;9.216;2023-09-18T01:18:48;94862.44;;;22.98;70.20
4590;BME280;2307;48.448;9.216;2023-09-18T01:21:15;94866.38;;;23.01;70.31
4590;BME280;2307;48.448;9.216;2023-09-18T01:23:43;94876.59;;;22.87;81.54
4590;BME280;2307;48.448;9.216;2023-09-18T01:26:10;94877.06;;;22.89;78.67
4590;BME280;2307;48.448;9.216;2023-09-18T01:28:36;94888.00;;;22.84;82.12
4590;BME280;2307;48.448;9.216;2023-09-18T01:31:03;94885.75;;;22.48;90.15
4590;BME280;2307;48.448;9.216;2023-09-18T01:33:29;94884.81;;;22.44;93.37
4590;BME280;2307;48.448;9.216;2023-09-18T01:35:55;94885.75;;;22.48;95.03
4590;BME280;2307;48.448;9.216;2023-09-18T01:38:22;94892.59;;;22.37;97.19
4590;BME280;2307;48.448;9.216;2023-09-18T01:40:51;94888.81;;;22.29;96.87
4590;BME280;2307;48.448;9.216;2023-09-18T01:43:18;94886.41;;;22.36;99.40
4590;BME280;2307;48.448;9.216;2023-09-18T01:45:45;94876.13;;;22.30;100.00
4590;BME280;2307;48.448;9.216;2023-09-18T01:48:11;94868.06;;;22.30;100.00
4590;BME280;2307;48.448;9.216;2023-09-18T01:50:38;94880.59;;;22.26;100.00
4590;BME280;2307;48.448;9.216;2023-09-18T01:53:05;94891.22;;;22.22;100.00
4590;BME280;2307;48.448;9.216;2023-09-18T01:55:31;94890.22;;;22.27;98.64
4590;BME280;2307;48.448;9.216;2023-09-18T01:57:59;94878.75;;;22.00;100.00
4590;BME280;2307;48.448;9.216;2023-09-18T02:00:25;94882.72;;;21.94;100.00
4590;BME280;2307;48.448;9.216;2023-09-18T02:02:52;94896.44;;;22.01;100.00
4590;BME280;2307;48.448;9.216;2023-09-18T02:05:18;94885.88;;;21.96;100.00
4590;BME280;2307;48.448;9.216;2023-09-18T02:07:44;94867.19;;;21.83;100.00
4590;BME280;2307;48.448;9.216;2023-09-18T02:10:11;94857.72;;;21.51;100.00
4590;BME280;2307;48.448;9.216;2023-09-18T02:12:38;94853.59;;;21.45;100.00
4590;BME280;2307;48.448;9.216;2023-09-18T02:15:07;94858.84;;;21.50;100.00
4590;BME280;2307;48.448;9.216;2023-09-18T02:17:36;94846.03;;;21.55;100.00
4590;BME280;2307;48.448;9.216;2023-09-18T02:20:02;94833.22;;;21.52;100.00
4590;BME280;2307;48.448;9.216;2023-09-18T02:22:31;94818.66;;;21.45;100.00
4590;BME280;2307;48.448;9.216;2023-09-18T02:24:57;94812.34;;;21.41;100.00
4590;BME280;2307;48.448;9.216;2023-09-18T02:27:24;94814.72;;;21.34;100.00
4590;BME280;2307;48.448;9.216;2023-09-18T02:29:50;94818.34;;;21.21;100.00
4590;BME280;2307;48.448;9.216;2023-09-18T02:32:20;94817.88;;;21.18;100.00
4590;BME280;2307;48.448;9.216;2023-09-18T02:34:46;94813.13;;;21.15;100.00
4590;BME280;2307;48.448;9.216;2023-09-18T02:37:12;94802.06;;;21.26;100.00
4590;BME280;2307;48.448;9.216;2023-09-18T02:39:39;94799.88;;;21.28;100.00
4590;BME280;2307;48.448;9.216;2023-09-18T02:42:06;94813.78;;;21.47;100.00
4590;BME280;2307;48.448;9.216;2023-09-18T02:44:32;94814.41;;;21.27;100.00
4590;BME280;2307;48.448;9.216;2023-09-18T02:46:58;94827.38;;;21.25;100.00
4590;BME280;2307;48.448;9.216;2023-09-18T02:49:28;94837.00;;;21.17;100.00
4590;BME280;2307;48.448;9.216;2023-09-18T02:51:55;94816.56;;;21.07;100.00
4590;BME280;2307;48.448;9.216;2023-09-18T02:54:21;94823.66;;;21.03;100.00
4590;BME280;2307;48.448;9.216;2023-09-18T02:56:48;94827.50;;;21.11;100.00
4590;BME280;2307;48.448;9.216;2023-09-18T02:59:14;94825.63;;;21.20;100.00
4590;BME280;2307;48.448;9.216;2023-09-18T03:01:40;94839.06;;;21.20;98.45
4590;BME280;2307;48.448;9.216;2023-09-18T03:04:07;94851.41;;;21.47;100.00
4590;BME280;2307;48.448;9.216;2023-09-18T03:06:37;94831.16;;;21.41;100.00
4590;BME280;2307;48.448;9.216;2023-09-18T03:09:04;94838.56;;;21.35;100.00
4590;BME280;2307;48.448;9.216;2023-09-18T03:11:30;94852.81;;;21.27;100.00
4590;BME280;2307;48.448;9.216;2023-09-18T03:13:57;94854.84;;;21.13;100.00
4590;BME280;2307;48.448;9.216;2023-09-18T03:16:23;94855.47;;;21.18;100.00
4590;BME280;2307;48.448;9.216;2023-09-18T03:18:49;94834.78;;;21.10;100.00
4590;BME280;2307;48.448;9.216;2023-09-18T03:21:16;94847.66;;;20.91;100.00
4590;BME280;2307;48.448;9.216;2023-09-18T03:23:43;94857.69;;;20.60;100.00
4590;BME280;2307;48.448;9.216;2023-09-18T03:26:10;94850.34;;;20.43;100.00
4590;BME280;2307;48.448;9.216;2023-09-18T03:28:36;94854.91;;;20.43;100.00
4590;BME280;2307;48.448;9.216;2023-09-18T03:31:03;94860.72;;;20.36;100.00
4590;BME280;2307;48.448;9.216;2023-09-18T03:33:30;94869.53;;;20.28;100.00
4590;BME280;2307;48.448;9.216;2023-09-18T03:35:57;94885.81;;;20.32;100.00
4590;BME280;2307;48.448;9.216;2023-09-18T03:38:23;94886.03;;;20.22;100.00
4590;BME280;2307;48.448;9.216;2023-09-18T03:40:52;94901.66;;;20.20;100.00
4590;BME280;2307;48.448;9.216;2023-09-18T03:43:18;94918.91;;;20.27;100.00
4590;BME280;2307;48.448;9.216;2023-09-18T03:45:44;94931.09;;;20.64;100.00
4590;BME280;2307;48.448;9.216;2023-09-18T03:48:11;94927.47;;;21.08;99.73
4590;BME280;2307;48.448;9.216;2023-09-18T03:50:37;94934.66;;;21.38;97.22
4590;BME280;2307;48.448;9.216;2023-09-18T03:53:04;94941.34;;;21.58;94.50
4590;BME280;2307;48.448;9.216;2023-09-18T03:55:30;94935.50;;;21.73;93.11
4590;BME280;2307;48.448;9.216;2023-09-18T03:57:58;94954.97;;;21.87;92.23
4590;BME280;2307;48.448;9.216;2023-09-18T04:00:25;94949.31;;;21.97;93.03
4590;BME280;2307;48.448;9.216;2023-09-18T04:02:51;94963.38;;;21.94;96.94
4590;BME280;2307;48.448;9.216;2023-09-18T04:05:18;94946.75;;;21.84;100.00
4590;BME280;2307;48.448;9.216;2023-09-18T04:07:44;94939.00;;;21.65;100.00
4590;BME280;2307;48.448;9.216;2023-09-18T04:10:11;94929.16;;;21.43;100.00
4590;BME280;2307;48.448;9.216;2023-09-18T04:12:43;94928.81;;;21.28;100.00
4590;BME280;2307;48.448;9.216;2023-09-18T04:15:12;94917.69;;;21.12;100.00
4590;BME280;2307;48.448;9.216;2023-09-18T04:17:39;94915.47;;;21.05;100.00
4590;BME280;2307;48.448;9.216;2023-09-18T04:20:06;94899.75;;;20.90;100.00
4590;BME280;2307;48.448;9.216;2023-09-18T04:22:32;94912.69;;;20.80;100.00
4590;BME280;2307;48.448;9.216;2023-09-18T04:24:59;94902.56;;;20.77;100.00
4590;BME280;2307;48.448;9.216;2023-09-18T04:27:25;94892.47;;;20.74;100.00
4590;BME280;2307;48.448;9.216;2023-09-18T04:29:52;94883.13;;;20.71;100.00
4590;BME280;2307;48.448;9.216;2023-09-18T04:32:20;94884.84;;;20.67;100.00
4590;BME280;2307;48.448;9.216;2023-09-18T04:34:46;94878.06;;;20.61;100.00
4590;BME280;2307;48.448;9.216;2023-09-18T04:37:12;94869.16;;;20.52;100.00
4590;BME280;2307;48.448;9.216;2023-09-18T04:39:39;94866.78;;;20.50;100.00
4590;BME280;2307;48.448;9.216;2023-09-18T04:42:05;94881.94;;;20.55;100.00
4590;BME280;2307;48.448;9.216;2023-09-18T04:44:32;94864.75;;;20.56;100.00
4590;BME280;2307;48.448;9.216;2023-09-18T04:46:58;94855.13;;;20.55;100.00
4590;BME280;2307;48.448;9.216;2023-09-18T04:49:26;94845.50;;;20.54;100.00
4590;BME280;2307;48.448;9.216;2023-09-18T04:51:54;94833.78;;;20.41;100.00
4590;BME280;2307;48.448;9.216;2023-09-18T04:54:20;94835.22;;;20.47;100.00
4590;BME280;2307;48.448;9.216;2023-09-18T04:56:47;94844.09;;;20.65;100.00
4590;BME280;2307;48.448;9.216;2023-09-18T04:59:13;94847.91;;;20.64;100.00
4590;BME280;2307;48.448;9.216;2023-09-18T05:01:40;94852.03;;;20.70;100.00
4590;BME280;2307;48.448;9.216;2023-09-18T05:04:06;94860.22;;;20.65;100.00
4590;BME280;2307;48.448;9.216;2023-09-18T05:06:34;94855.16;;;20.63;100.00
4590;BME280;2307;48.448;9.216;2023-09-18T05:09:01;94858.03;;;20.67;100.00
4590;BME280;2307;48.448;9.216;2023-09-18T05:11:28;94849.34;;;20.70;100.00
4590;BME280;2307;48.448;9.216;2023-09-18T05:13:55;94850.78;;;20.76;100.00
4590;BME280;2307;48.448;9.216;2023-09-18T05:16:21;94846.97;;;20.77;100.00
4590;BME280;2307;48.448;9.216;2023-09-18T05:18:48;94847.94;;;20.73;100.00
4590;BME280;2307;48.448;9.216;2023-09-18T05:21:14;94845.59;;;20.80;100.00
4590;BME280;2307;48.448;9.216;2023-09-18T05:23:42;94852.06;;;20.79;100.00
4590;BME280;2307;48.448;9.216;2023-09-18T05:26:09;94851.59;;;20.85;100.00
4590;BME280;2307;48.448;9.216;2023-09-18T05:28:36;94853.81;;;20.83;100.00
4590;BME280;2307;48.448;9.216;2023-09-18T05:31:02;94857.59;;;20.82;100.00
4590;BME280;2307;48.448;9.216;2023-09-18T05:33:28;94851.59;;;20.85;100.00
4590;BME280;2307;48.448;9.216;2023-09-18T05:35:55;94849.72;;;20.94;100.00
4590;BME280;2307;48.448;9.216;2023-09-18T05:38:21;94852.09;;;20.96;100.00
4590;BME280;2307;48.448;9.216;2023-09-18T05:40:49;94850.69;;;20.98;100.00
4590;BME280;2307;48.448;9.216;2023-09-18T05:43:15;94852.47;;;21.20;100.00
4590;BME280;2307;48.448;9.216;2023-09-18T05:45:43;94867.34;;;21.17;100.00
4590;BME280;2307;48.448;9.216;2023-09-18T05:48:09;94867.16;;;21.23;100.00
4590;BME280;2307;48.448;9.216;2023-09-18T05:50:35;94864.47;;;21.14;100.00
4590;BME280;2307;48.448;9.216;2023-09-18T05:53:02;94870.34;;;21.25;100.00
4590;BME280;2307;48.448;9.216;2023-09-18T05:55:29;94869.84;;;21.23;100.00
4590;BME280;2307;48.448;9.216;2023-09-18T05:57:57;94867.16;;;21.23;100.00
4590;BME280;2307;48.448;9.216;2023-09-18T06:00:23;94866.84;;;21.15;100.00
4590;BME280;2307;48.448;9.216;2023-09-18T06:02:50;94854.03;;;21.12;100.00
4590;BME280;2307;48.448;9.216;2023-09-18T06:05:17;94861.16;;;21.26;100.00
4590;BME280;2307;48.448;9.216;2023-09-18T06:07:46;94855.16;;;21.29;100.00
4590;BME280;2307;48.448;9.216;2023-09-18T06:10:12;94861.81;;;21.40;100.00
4590;BME280;2307;48.448;9.216;2023-09-18T06:12:39;94862.28;;;21.42;100.00
4590;BME280;2307;48.448;9.216;2023-09-18T06:15:07;94856.75;;;21.30;100.00
4590;BME280;2307;48.448;9.216;2023-09-18T06:17:35;94851.72;;;21.37;100.00
4590;BME280;2307;48.448;9.216;2023-09-18T06:20:01;94856.91;;;21.33;100.00
4590;BME280;2307;48.448;9.216;2023-09-18T06:22:29;94856.91;;;21.25;100.00
4590;BME280;2307;48.448;9.216;2023-09-18T06:24:55;94867.97;;;21.23;100.00
4590;BME280;2307;48.448;9.216;2023-09-18T06:27:22;94852.34;;;21.34;100.00
4590;BME280;2307;48.448;9.216;2023-09-18T06:29:48;94854.22;;;21.42;100.00
4590;BME280;2307;48.448;9.216;2023-09-18T06:32:16;94862.16;;;21.47;100.00
4590;BME280;2307;48.448;9.216;2023-09-18T06:34:42;94857.53;;;21.47;100.00
4590;BME280;2307;48.448;9.216;2023-09-18T06:37:09;94862.91;;;21.47;98.28
4590;BME280;2307;48.448;9.216;2023-09-18T06:39:37;94870.66;;;21.66;92.53
4590;BME280;2307;48.448;9.216;2023-09-18T06:42:04;94871.78;;;21.73;91.47
4590;BME280;2307;48.448;9.216;2023-09-18T06:44:30;94879.84;;;21.73;92.63
4590;BME280;2307;48.448;9.216;2023-09-18T06:46:57;94877.94;;;21.74;93.61
4590;BME280;2307;48.448;9.216;2023-09-18T06:49:25;94890.28;;;21.75;91.86
4590;BME280;2307;48.448;9.216;2023-09-18T06:51:51;94882.84;;;21.81;86.46
4590;BME280;2307;48.448;9.216;2023-09-18T06:54:18;94883.31;;;21.83;83.91
4590;BME280;2307;48.448;9.216;2023-09-18T06:56:44;94893.13;;;21.87;84.20
4590;BME280;2307;48.448;9.216;2023-09-18T06:59:11;94890.00;;;21.94;83.64
4590;BME280;2307;48.448;9.216;2023-09-18T07:01:37;94882.72;;;21.94;82.23
4590;BME280;2307;48.448;9.216;2023-09-18T07:04:05;94877.47;;;21.89;85.43
4590;BME280;2307;48.448;9.216;2023-09-18T07:06:33;94883.03;;;21.93;87.41
4590;BME280;2307;48.448;9.216;2023-09-18T07:08:59;94888.69;;;21.74;93.48
4590;BME280;2307;48.448;9.216;2023-09-18T07:11:27;94885.53;;;21.63;95.70
4590;BME280;2307;48.448;9.216;2023-09-18T07:13:53;94892.78;;;21.63;95.89
4590;BME280;2307;48.448;9.216;2023-09-18T07:16:19;94904.50;;;21.50;94.23
4590;BME280;2307;48.448;9.216;2023-09-18T07:18:46;94915.56;;;21.57;93.17
4590;BME280;2307;48.448;9.216;2023-09-18T07:21:12;94917.78;;;21.55;95.97
4590;BME280;2307;48.448;9.216;2023-09-18T07:23:40;94920.94;;;21.48;96.93
4590;BME280;2307;48.448;9.216;2023-09-18T07:26:07;94915.91;;;21.47;97.91
4590;BME280;2307;48.448;9.216;2023-09-18T07:28:33;94920.78;;;21.36;100.00
4590;BME280;2307;48.448;9.216;2023-09-18T07:31:04;94915.22;;;21.33;100.00
4590;BME280;2307;48.448;9.216;2023-09-18T07:33:30;94926.13;;;21.28;100.00
4590;BME280;2307;48.448;9.216;2023-09-18T07:35:57;94926.88;;;21.19;100.00
4590;BME280;2307;48.448;9.216;2023-09-18T07:38:23;94933.13;;;21.06;100.00
4590;BME280;2307;48.448;9.216;2023-09-18T07:40:51;94935.19;;;21.01;100.00
4590;BME280;2307;48.448;9.216;2023-09-18T07:43:17;94940.72;;;20.96;100.00
4590;BME280;2307;48.448;9.216;2023-09-18T07:45:45;94961.41;;;21.04;100.00
4590;BME280;2307;48.448;9.216;2023-09-18T07:48:11;94966.88;;;21.21;100.00
4590;BME280;2307;48.448;9.216;2023-09-18T07:50:37;94972.69;;;21.14;100.00
4590;BME280;2307;48.448;9.216;2023-09-18T07:53:04;94979.00;;;21.18;100.00
4590;BME280;2307;48.448;9.216;2023-09-18T07:55:30;94987.56;;;21.21;100.00
4590;BME280;2307;48.448;9.216;2023-09-18T07:57:58;94982.28;;;21.07;100.00
4590;BME280;2307;48.448;9.216;2023-09-18T08:00:24;94990.84;;;21.09;100.00
4590;BME280;2307;48.448;9.216;2023-09-18T08:02:52;94996.50;;;21.07;100.00
4590;BME280;2307;48.448;9.216;2023-09-18T08:05:23;95005.63;;;20.98;100.00
4590;BME280;2307;48.448;9.216;2023-09-18T08:07:52;95006.56;;;20.71;100.00
4590;BME280;2307;48.448;9.216;2023-09-18T08:10:21;95011.59;;;20.64;100.00
4590;BME280;2307;48.448;9.216;2023-09-18T08:12:47;95020.88;;;20.58;100.00
4590;BME280;2307;48.448;9.216;2023-09-18T08:15:16;95039.91;;;20.48;100.00
4590;BME280;2307;48.448;9.216;2023-09-18T08:17:43;95044.28;;;20.44;100.00
4590;BME280;2307;48.448;9.216;2023-09-18T08:20:11;95024.28;;;20.28;100.00
4590;BME280;2307;48.448;9.216;2023-09-18T08:22:39;95032.84;;;20.16;100.00
4590;BME280;2307;48.448;9.216;2023-09-18T08:25:06;95019.97;;;20.04;100.00
4590;BME280;2307;48.448;9.216;2023-09-18T08:27:35;95014.59;;;20.04;100.00
4590;BME280;2307;48.448;9.216;2023-09-18T08:30:03;95039.19;;;19.84;100.00
4590;BME280;2307;48.448;9.216;2023-09-18T08:32:30;95049.44;;;19.41;100.00
4590;BME280;2307;48.448;9.216;2023-09-18T08:34:59;95058.56;;;19.27;100.00
4590;BME280;2307;48.448;9.216;2023-09-18T08:37:26;95077.59;;;19.12;100.00
4590;BME280;2307;48.448;9.216;2023-09-18T08:39:53;95084.63;;;18.75;100.00
4590;BME280;2307;48.448;9.216;2023-09-18T08:42:19;95053.22;;;18.48;100.00
4590;BME280;2307;48.448;9.216;2023-09-18T08:44:47;95056.09;;;18.20;100.00
4590;BME280;2307;48.448;9.216;2023-09-18T08:47:16;95046.63;;;17.90;100.00
4590;BME280;2307;48.448;9.216;2023-09-18T08:49:45;95038.94;;;17.65;100.00
4590;BME280;2307;48.448;9.216;2023-09-18T08:52:12;95052.47;;;17.49;100.00
4590;BME280;2307;48.448;9.216;2023-09-18T08:54:40;95047.91;;;17.31;100.00
4590;BME280;2307;48.448;9.216;2023-09-18T08:57:06;95041.31;;;17.24;100.00
4590;BME280;2307;48.448;9.216;2023-09-18T08:59:33;95039.59;;;17.09;100.00
4590;BME280;2307;48.448;9.216;2023-09-18T09:02:01;95036.72;;;17.06;100.00
4590;BME280;2307;48.448;9.216;2023-09-18T09:04:27;95026.53;;;17.08;100.00
4590;BME280;2307;48.448;9.216;2023-09-18T09:06:55;95016.25;;;17.20;100.00
4590;BME280;2307;48.448;9.216;2023-09-18T09:09:24;95020.44;;;17.26;100.00
4590;BME280;2307;48.448;9.216;2023-09-18T09:11:51;95032.94;;;17.30;100.00
4590;BME280;2307;48.448;9.216;2023-09-18T09:14:18;95032.03;;;17.40;100.00
4590;BME280;2307;48.448;9.216;2023-09-18T09:16:47;95041.34;;;17.66;100.00
4590;BME280;2307;48.448;9.216;2023-09-18T09:19:15;95035.84;;;17.76;100.00
4590;BME280;2307;48.448;9.216;2023-09-18T09:21:42;95026.91;;;17.67;100.00
4590;BME280;2307;48.448;9.216;2023-09-18T09:24:10;95003.78;;;17.76;100.00
4590;BME280;2307;48.448;9.216;2023-09-18T09:26:39;95004.94;;;17.89;100.00
4590;BME280;2307;48.448;9.216;2023-09-18T09:29:15;94990.25;;;17.91;100.00
4590;BME280;2307;48.448;9.216;2023-09-18T09:31:43;94985.88;;;17.95;100.00
4590;BME280;2307;48.448;9.216;2023-09-18T09:34:09;94985.88;;;17.95;100.00
4590;BME280;2307;48.448;9.216;2023-09-18T09:36:36;94974.59;;;17.98;100.00
4590;BME280;2307;48.448;9.216;2023-09-18T09:39:02;94970.38;;;17.79;100.00
4590;BME280;2307;48.448;9.216;2023-09-18T09:41:32;94974.94;;;17.78;100.00
4590;BME280;2307;48.448;9.216;2023-09-18T09:43:58;94968.13;;;17.86;100.00
4590;BME280;2307;48.448;9.216;2023-09-18T09:46:25;94993.25;;;18.03;100.00
4590;BME280;2307;48.448;9.216;2023-09-18T09:48:59;95006.69;;;17.98;100.00
4590;BME280;2307;48.448;9.216;2023-09-18T09:51:26;95015.94;;;17.87;100.00
4590;BME280;2307;48.448;9.216;2023-09-18T09:53:53;95015.50;;;17.80;100.00
4590;BME280;2307;48.448;9.216;2023-09-18T09:56:19;95018.63;;;17.87;100.00
4590;BME280;2307;48.448;9.216;2023-09-18T09:59:00;95038.81;;;17.93;100.00
4590;BME280;2307;48.448;9.216;2023-09-18T10:01:30;95065.09;;;18.05;100.00
4590;BME280;2307;48.448;9.216;2023-09-18T10:03:56;95063.38;;;18.14;100.00
4590;BME280;2307;48.448;9.216;2023-09-18T10:06:25;95054.75;;;18.17;100.00
4590;BME280;2307;48.448;9.216;2023-09-18T10:08:55;95059.69;;;18.29;100.00
4590;BME280;2307;48.448;9.216;2023-09-18T10:11:21;95055.75;;;18.40;100.00
4590;BME280;2307;48.448;9.216;2023-09-18T10:13:54;95056.78;;;18.44;100.00
4590;BME280;2307;48.448;9.216;2023-09-18T10:16:23;95042.91;;;18.42;100.00
4590;BME280;2307;48.448;9.216;2023-09-18T10:18:52;95048.16;;;18.47;100.00
4590;BME280;2307;48.448;9.216;2023-09-18T10:21:25;95047.22;;;18.56;100.00
4590;BME280;2307;48.448;9.216;2023-09-18T10:23:58;95040.06;;;18.71;100.00
4590;BME280;2307;48.448;9.216;2023-09-18T10:26:25;95037.75;;;18.64;100.00
4590;BME280;2307;48.448;9.216;2023-09-18T10:28:54;95040.06;;;18.71;100.00
4590;BME280;2307;48.448;9.216;2023-09-18T10:31:25;95029.16;;;18.67;100.00
4590;BME280;2307;48.448;9.216;2023-09-18T10:33:52;95027.34;;;18.63;100.00
4590;BME280;2307;48.448;9.216;2023-09-18T10:36:19;95023.25;;;18.51;100.00
4590;BME280;2307;48.448;9.216;2023-09-18T10:38:47;95016.44;;;18.40;100.00
4590;BME280;2307;48.448;9.216;2023-09-18T10:41:16;95020.66;;;18.28;100.00
4590;BME280;2307;48.448;9.216;2023-09-18T10:43:44;95012.56;;;18.33;100.00
4590;BME280;2307;48.448;9.216;2023-09-18T10:46:11;95006.91;;;18.34;100.00
4590;BME280;2307;48.448;9.216;2023-09-18T10:48:40;95018.91;;;18.37;100.00
4590;BME280;2307;48.448;9.216;2023-09-18T10:51:07;95021.47;;;18.28;100.00
4590;BME280;2307;48.448;9.216;2023-09-18T10:53:33;95028.78;;;18.23;100.00
4590;BME280;2307;48.448;9.216;2023-09-18T10:56:00;95052.41;;;18.16;100.00
4590;BME280;2307;48.448;9.216;2023-09-18T10:58:29;95056.38;;;17.99;100.00
4590;BME280;2307;48.448;9.216;2023-09-18T11:00:56;95065.06;;;17.91;100.00
4590;BME280;2307;48.448;9.216;2023-09-18T11:03:23;95057.75;;;17.78;100.00
4590;BME280;2307;48.448;9.216;2023-09-18T11:06:03;95054.06;;;17.74;100.00
4590;BME280;2307;48.448;9.216;2023-09-18T11:08:30;95059.41;;;17.74;100.00
4590;BME280;2307;48.448;9.216;2023-09-18T11:10:59;95060.34;;;17.83;100.00
4590;BME280;2307;48.448;9.216;2023-09-18T11:13:30;95072.53;;;17.89;100.00
4590;BME280;2307;48.448;9.216;2023-09-18T11:15:59;95077.75;;;17.99;100.00
4590;BME280;2307;48.448;9.216;2023-09-18T11:18:32;95060.28;;;18.07;100.00
4590;BME280;2307;48.448;9.216;2023-09-18T11:21:09;95059.47;;;18.07;100.00
4590;BME280;2307;48.448;9.216;2023-09-18T11:23:36;95058.25;;;17.99;100.00
4590;BME280;2307;48.448;9.216;2023-09-18T11:26:07;95043.94;;;18.09;100.00
4590;BME280;2307;48.448;9.216;2023-09-18T11:28:33;95033.69;;;18.16;100.00
4590;BME280;2307;48.448;9.216;2023-09-18T11:31:00;95045.63;;;18.23;100.00
4590;BME280;2307;48.448;9.216;2023-09-18T11:33:34;95052.16;;;18.31;100.00
4590;BME280;2307;48.448;9.216;2023-09-18T11:36:04;95057.06;;;18.24;100.00
4590;BME280;2307;48.448;9.216;2023-09-18T11:38:33;95059.03;;;18.18;100.00
4590;BME280;2307;48.448;9.216;2023-09-18T11:41:01;95069.94;;;18.22;100.00
4590;BME280;2307;48.448;9.216;2023-09-18T11:43:45;95055.66;;;18.13;100.00
4590;BME280;2307;48.448;9.216;2023-09-18T11:46:17;95055.22;;;18.05;100.00
4590;BME280;2307;48.448;9.216;2023-09-18T11:48:44;95051.16;;;18.08;100.00
4590;BME280;2307;48.448;9.216;2023-09-18T11:51:11;95048.66;;;18.17;100.00
4590;BME280;2307;48.448;9.216;2023-09-18T11:53:40;95043.22;;;18.22;100.00
4590;BME280;2307;48.448;9.216;2023-09-18T11:56:10;95065.63;;;18.26;100.00
4590;BME280;2307;48.448;9.216;2023-09-18T11:58:44;95076.22;;;18.31;100.00
4590;BME280;2307;48.448;9.216;2023-09-18T12:01:10;95064.88;;;18.39;100.00
4590;BME280;2307;48.448;9.216;2023-09-18T12:03:40;95063.22;;;18.24;100.00
4590;BME280;2307;48.448;9.216;2023-09-18T12:06:06;95057.50;;;18.31;100.00
4590;BME280;2307;48.448;9.216;2023-09-18T12:08:34;95057.06;;;18.24;100.00
4590;BME280;2307;48.448;9.216;2023-09-18T12:11:05;95054.34;;;18.29;100.00
4590;BME280;2307;48.448;9.216;2023-09-18T12:13:32;95018.91;;;18.37;100.00
4590;BME280;2307;48.448;9.216;2023-09-18T12:15:59;94998.09;;;18.34;100.00
4590;BME280;2307;48.448;9.216;2023-09-18T12:18:26;95008.28;;;18.50;100.00
4590;BME280;2307;48.448;9.216;2023-09-18T12:20:54;95000.78;;;18.66;100.00
4590;BME280;2307;48.448;9.216;2023-09-18T12:23:21;95006.75;;;18.90;100.00
4590;BME280;2307;48.448;9.216;2023-09-18T12:25:49;95005.91;;;19.08;100.00
4590;BME280;2307;48.448;9.216;2023-09-18T12:28:18;95017.47;;;19.31;100.00
4590;BME280;2307;48.448;9.216;2023-09-18T12:30:44;95024.25;;;19.56;100.00
4590;BME280;2307;48.448;9.216;2023-09-18T12:33:11;95032.97;;;19.75;100.00
4590;BME280;2307;48.448;9.216;2023-09-18T12:35:39;95045.75;;;19.78;100.00
4590;BME280;2307;48.448;9.216;2023-09-18T12:38:13;95026.63;;;19.71;100.00
4590;BME280;2307;48.448;9.216;2023-09-18T12:40:39;95045.25;;;19.76;100.00
4590;BME280;2307;48.448;9.216;2023-09-18T12:43:06;95037.63;;;19.70;100.00
4590;BME280;2307;48.448;9.216;2023-09-18T12:45:34;95030.56;;;19.87;100.00
4590;BME280;2307;48.448;9.216;2023-09-18T12:48:01;95026.88;;;20.19;100.00
4590;BME280;2307;48.448;9.216;2023-09-18T12:50:28;95019.03;;;20.23;100.00
4590;BME280;2307;48.448;9.216;2023-09-18T12:53:05;95029.97;;;20.26;100.00
4590;BME280;2307;48.448;9.216;2023-09-18T12:55:32;95039.97;;;20.21;100.00
4590;BME280;2307;48.448;9.216;2023-09-18T12:57:59;94996.34;;;20.06;100.00
4590;BME280;2307;48.448;9.216;2023-09-18T13:00:30;94966.34;;;20.49;100.00
4590;BME280;2307;48.448;9.216;2023-09-18T13:02:58;95008.78;;;20.69;100.00
4590;BME280;2307;48.448;9.216;2023-09-18T13:05:24;95013.41;;;20.55;100.00
4590;BME280;2307;48.448;9.216;2023-09-18T13:07:51;94986.06;;;20.44;100.00
4590;BME280;2307;48.448;9.216;2023-09-18T13:10:19;94982.59;;;20.44;100.00
4590;BME280;2307;48.448;9.216;2023-09-18T13:12:47;94998.66;;;20.22;100.00